Youngstown, NY

5:56 PM EDT on August 01, 2015 (GMT -0400)
the original Riverbend Farm | | Change Station
CLOSE
Current Station
Personal Weather Station
Location: Niagara On The Lake, Ontario
Elevation: 315 ft
Nearby Weather Stations

Elev 315 ft 43.21 °N, 79.06 °W | Updated 5 seconds ago

Overcast
Overcast
74.4 °F
Feels Like 76 °F
N
2.0
Wind Variable Wind from SW
Gusts 7.0 mph

Today
High -- | Low -- °F
--% Chance of Precip.
Yesterday
High -- | Low -- °F
Precip. -- in
6:06 AM 8:38 PM
Full, 97% visible
Pressure 29.84 in
Visibility 5.0 miles
Clouds Few 3800 ft
Mostly Cloudy 5500 ft
Mostly Cloudy 10000 ft
Mostly Cloudy 17000 ft
Heat Index 76 °F
Dew Point 65 °F
Humidity 73%
Rainfall 0.14 in
Snow Depth Not available.
UV 2 out of 12
Pollen 7.90 out of 12
Air Quality Not available.
Flu Activity Not available.
METAR KIAG 012153Z 21010KT 5SM R28R/3000VP6000FT TSRA FEW038 BKN055CB BKN100 BKN170 20/16 A2984 RMK AO2 PK WND 24027/2130 RAB01 SLP105 OCNL LTGCG VC SE TS VC SE MOV SE CB DSNT SW MOV SE P0017 T02000161

More Conditions Fewer Conditions

Pressure 29.84 in
Visibility 5.0 miles
Clouds Few 3800 ft
Mostly Cloudy 5500 ft
Mostly Cloudy 10000 ft
Mostly Cloudy 17000 ft
Heat Index 76 °F
Dew Point 65 °F
Humidity 73%
Rainfall 0.14 in
Snow Depth Not available.
UV 2 out of 12
Pollen 7.90 out of 12
Air Quality Not available.
Flu Activity Not available.
METAR KIAG 012153Z 21010KT 5SM R28R/3000VP6000FT TSRA FEW038 BKN055CB BKN100 BKN170 20/16 A2984 RMK AO2 PK WND 24027/2130 RAB01 SLP105 OCNL LTGCG VC SE TS VC SE MOV SE CB DSNT SW MOV SE P0017 T02000161

More Conditions Fewer Conditions

10-Day Weather Forecast

×

Almanac

Astronomy

Aug. 01, 2015 Rise Set
Actual Time
Civil Twilight
Nautical Twilight
Astronomical Twilight
Moon
Length of Visible Light
Length of Day
Tomorrow will be .
, % of the Moon is Illuminated

Today's Extremes

State Highs State Lows

Community

WunderPhotos

Upload Photos

1,843,080 photos uploaded!

WunderBlogs® & News

Nearby

Air Quality

  Air Quality AQ Index Pollutant
Not available.

Snow Depth

Station Depth Elevation

Earthquake Activity

City Distance Mag. Time & Date
Minimum magnitude displayed is 2.5.

Coastal Water Temperatures

Place Temperature

Stations

Nearby Weather Stations

Station Location Temp. Windchill Dew Point Humidity Wind Precip. Elev Updated Type